.
WxDataArchive / Data Records for 2014-01-06
2014-01-05 January 2014 2014-01-07

Data Records for Monday, 06 January 2014

Time	Temp	Chill	HIndex	Humid	Dewpt	 Wind 	HiWind	WindDir	Rain 	Barom 
-----	----	-----	------	-----	-----	------	------	-------	-----	----- 
00:00	18.8	12.8	18.8	88	15.8	4	10	292	0.00	29.738 
00:05	18.6	18.6	18.6	88	15.6	3	7	292	0.00	29.738 
00:10	18.6	12.6	18.6	88	15.6	4	10	292	0.00	29.738 
00:15	18.4	12.4	18.4	88	15.5	4	9	292	0.00	29.749 
00:20	18.4	18.4	18.4	88	15.5	3	7	270	0.00	29.749 
00:25	18.4	18.4	18.4	88	15.5	3	7	292	0.00	29.749 
00:30	18.4	18.4	18.4	88	15.5	3	9	338	0.00	29.752 
00:35	18.6	18.6	18.6	88	15.6	2	6	270	0.00	29.752 
00:40	18.6	18.6	18.6	88	15.6	2	4	292	0.00	29.752 
00:45	18.6	18.6	18.6	88	15.6	2	5	292	0.00	29.754 
00:50	18.6	18.6	18.6	88	15.6	3	6	292	0.00	29.754 
00:55	18.6	18.6	18.6	88	15.6	3	7	292	0.00	29.754 
01:00	18.4	18.4	18.4	88	15.5	3	7	292	0.00	29.758 
01:05	18.4	18.4	18.4	88	15.5	3	11	292	0.00	29.758 
01:10	18.3	12.3	18.3	87	15.1	4	10	315	0.00	29.758 
01:15	18.1	18.1	18.1	87	14.9	3	6	270	0.00	29.768 
01:20	18.0	18.0	18.0	86	14.5	3	5	315	0.00	29.768 
01:25	18.0	18.0	18.0	86	14.5	3	7	292	0.00	29.768 
01:30	17.8	17.8	17.8	86	14.3	3	6	315	0.00	29.779 
01:35	17.8	17.8	17.8	86	14.3	3	7	315	0.00	29.779 
01:40	17.7	17.7	17.7	86	14.2	3	6	292	0.00	29.779 
01:45	17.7	17.7	17.7	86	14.2	3	9	338	0.00	29.785 
01:50	17.5	17.5	17.5	86	14.0	2	6	270	0.00	29.785 
01:55	17.5	17.5	17.5	86	14.0	2	4	315	0.00	29.785 
02:00	17.5	17.5	17.5	86	14.0	2	6	292	0.00	29.797 
02:05	17.7	17.7	17.7	86	14.2	3	5	270	0.00	29.797 
02:10	17.5	17.5	17.5	86	14.0	3	6	292	0.00	29.797 
02:15	17.2	17.2	17.2	86	13.7	3	9	270	0.00	29.814 
02:20	17.0	17.0	17.0	86	13.6	3	6	270	0.00	29.814 
02:25	16.5	16.5	16.5	85	12.8	3	7	270	0.00	29.814 
02:30	16.2	9.8	16.2	85	12.5	4	7	270	0.00	29.830 
02:35	15.9	15.9	15.9	85	12.2	3	9	270	0.00	29.830 
02:40	15.4	15.4	15.4	84	11.4	3	7	270	0.00	29.830 
02:45	14.8	8.2	14.8	84	10.9	4	10	270	0.00	29.849 
02:50	14.3	14.3	14.3	84	10.4	3	6	270	0.00	29.849 
02:55	14.0	14.0	14.0	83	9.8	3	6	270	0.00	29.849 
03:00	13.3	6.5	13.3	83	9.1	4	7	270	0.00	29.867 
03:05	12.6	12.6	12.6	82	8.2	3	7	270	0.00	29.867 
03:10	12.1	12.1	12.1	82	7.7	3	7	270	0.00	29.867 
03:15	11.6	11.6	11.6	82	7.2	3	9	270	0.00	29.875 
03:20	11.2	11.2	11.2	82	6.8	3	7	270	0.00	29.875 
03:25	11.1	3.9	11.1	82	6.7	4	7	270	0.00	29.875 
03:30	10.9	10.9	10.9	82	6.5	3	5	270	0.00	29.884 
03:35	10.5	10.5	10.5	82	6.1	3	6	270	0.00	29.884 
03:40	10.2	10.2	10.2	81	5.6	3	6	270	0.00	29.884 
03:45	10.0	10.0	10.0	81	5.4	3	9	270	0.00	29.891 
03:50	9.7	9.7	9.7	81	5.1	3	11	270	0.00	29.891 
03:55	9.3	9.3	9.3	81	4.7	3	6	270	0.00	29.891 
04:00	9.0	1.5	9.0	81	4.4	4	10	270	0.00	29.907 
04:05	8.6	1.0	8.6	81	4.0	4	8	270	0.00	29.907 
04:10	8.3	0.7	8.3	80	3.4	4	7	270	0.00	29.907 
04:15	8.1	0.5	8.1	80	3.2	4	7	270	0.00	29.920 
04:20	7.7	0.0	7.7	80	2.8	4	7	270	0.00	29.920 
04:25	7.6	7.6	7.6	80	2.7	3	6	270	0.00	29.920 
04:30	7.4	7.4	7.4	80	2.5	3	7	270	0.00	29.924 
04:35	7.0	-0.8	7.0	79	1.9	4	7	270	0.00	29.924 
04:40	6.7	6.7	6.7	79	1.6	3	6	270	0.00	29.924 
04:45	6.3	6.3	6.3	79	1.2	2	6	270	0.00	29.939 
04:50	6.0	6.0	6.0	78	0.6	3	6	270	0.00	29.939 
04:55	5.4	5.4	5.4	78	0.1	3	6	270	0.00	29.939 
05:00	5.0	5.0	5.0	78	-0.3	2	6	292	0.00	29.949 
05:05	4.3	4.3	4.3	77	-1.3	3	6	270	0.00	29.949 
05:10	3.5	3.5	3.5	77	-2.1	3	6	270	0.00	29.949 
05:15	2.8	2.8	2.8	76	-3.0	3	6	270	0.00	29.966 
05:20	2.4	-6.1	2.4	76	-3.4	4	6	270	0.00	29.966 
05:25	1.8	1.8	1.8	76	-4.0	3	6	270	0.00	29.966 
05:30	1.5	-7.2	1.5	76	-4.3	4	7	270	0.00	29.981 
05:35	1.1	-7.6	1.1	75	-4.9	4	7	270	0.00	29.981 
05:40	0.9	0.9	0.9	75	-5.1	3	6	270	0.00	29.981 
05:45	0.5	0.5	0.5	75	-5.5	3	7	270	0.00	29.995 
05:50	0.3	0.3	0.3	75	-5.7	3	5	270	0.00	29.995 
05:55	0.1	0.1	0.1	75	-5.9	3	5	270	0.00	29.995 
06:00	0.0	0.0	0.0	75	-6.0	3	7	270	0.00	30.000 
06:05	-0.2	-0.2	-0.2	75	-6.2	3	5	270	0.00	30.000 
06:10	-0.4	-0.4	-0.4	74	-6.7	3	6	270	0.00	30.000 
06:15	-0.6	-0.6	-0.6	74	-6.9	3	6	270	0.00	30.012 
06:20	-0.6	-0.6	-0.6	74	-6.9	3	7	270	0.00	30.012 
06:25	-0.8	-0.8	-0.8	74	-7.1	2	5	270	0.00	30.012 
06:30	-0.8	-0.8	-0.8	74	-7.1	2	5	270	0.00	30.019 
06:35	-1.0	-1.0	-1.0	73	-7.5	3	6	270	0.00	30.019 
06:40	-1.2	-1.2	-1.2	73	-7.7	2	5	270	0.00	30.019 
06:45	-1.2	-1.2	-1.2	73	-7.7	3	7	270	0.00	30.033 
06:50	-1.4	-1.4	-1.4	73	-7.9	2	5	270	0.00	30.033 
06:55	-1.8	-1.8	-1.8	72	-8.6	3	6	270	0.00	30.033 
07:00	-2.4	-2.4	-2.4	71	-9.4	3	10	270	0.00	30.050 
07:05	-3.3	-3.3	-3.3	70	-10.6	3	6	270	0.00	30.050 
07:10	-3.9	-3.9	-3.9	69	-11.5	3	7	270	0.00	30.050 
07:15	-4.6	-4.6	-4.6	69	-12.1	3	8	270	0.00	30.057 
07:20	-5.0	-5.0	-5.0	69	-12.5	2	5	270	0.00	30.057 
07:25	-5.2	-5.2	-5.2	69	-12.7	3	10	270	0.00	30.057 
07:30	-5.4	-5.4	-5.4	69	-12.9	2	6	248	0.00	30.071 
07:35	-5.9	-5.9	-5.9	69	-13.4	3	6	248	0.00	30.071 
07:40	-6.3	-6.3	-6.3	69	-13.8	2	6	270	0.00	30.071 
07:45	-6.8	-6.8	-6.8	69	-14.3	2	6	270	0.00	30.074 
07:50	-7.0	-7.0	-7.0	69	-14.4	3	5	270	0.00	30.074 
07:55	-7.2	-7.2	-7.2	69	-14.6	2	6	248	0.00	30.074 
08:00	-7.7	-7.7	-7.7	69	-15.1	2	6	248	0.00	30.083 
08:05	-7.9	-7.9	-7.9	69	-15.3	2	4	270	0.00	30.083 
08:10	-8.2	-8.2	-8.2	69	-15.6	2	5	270	0.00	30.083 
08:15	-8.4	-8.4	-8.4	69	-15.8	2	4	248	0.00	30.099 
08:20	-8.9	-8.9	-8.9	69	-16.3	2	5	270	0.00	30.099 
08:25	-8.9	-8.9	-8.9	69	-16.3	3	6	270	0.00	30.099 
08:30	-9.1	-9.1	-9.1	69	-16.5	2	5	248	0.00	30.107 
08:35	-9.3	-9.3	-9.3	69	-16.7	2	5	270	0.00	30.107 
08:40	-9.6	-9.6	-9.6	69	-16.9	2	6	248	0.00	30.107 
08:45	-9.8	-9.8	-9.8	69	-17.1	2	4	270	0.00	30.119 
08:50	-9.8	-9.8	-9.8	69	-17.1	2	6	248	0.00	30.119 
08:55	-10.0	-10.0	-10.0	69	-17.3	2	4	270	0.00	30.119 
09:00	-10.0	-10.0	-10.0	68	-17.6	2	7	270	0.00	30.132 
09:05	-10.3	-10.3	-10.3	68	-17.9	2	5	270	0.00	30.132 
09:10	-10.3	-10.3	-10.3	68	-17.9	2	10	270	0.00	30.132 
09:15	-10.3	-10.3	-10.3	68	-17.9	2	5	270	0.00	30.140 
09:20	-10.5	-10.5	-10.5	68	-18.1	2	4	270	0.00	30.140 
09:25	-10.5	-10.5	-10.5	68	-18.1	2	5	270	0.00	30.140 
09:30	-10.5	-10.5	-10.5	68	-18.1	2	5	270	0.00	30.140 
09:35	-10.5	-10.5	-10.5	68	-18.1	3	7	270	0.00	30.140 
09:40	-10.5	-10.5	-10.5	68	-18.1	2	4	270	0.00	30.140 
09:45	-10.5	-10.5	-10.5	67	-18.4	3	5	248	0.00	30.146 
09:50	-10.7	-10.7	-10.7	67	-18.6	3	7	270	0.00	30.146 
09:55	-10.7	-10.7	-10.7	67	-18.6	3	7	270	0.00	30.146 
10:00	-10.7	-10.7	-10.7	67	-18.6	2	5	270	0.00	30.150 
10:05	-10.7	-10.7	-10.7	67	-18.6	3	7	248	0.00	30.150 
10:10	-10.7	-10.7	-10.7	67	-18.6	2	6	270	0.00	30.150 
10:15	-10.7	-10.7	-10.7	67	-18.6	2	4	270	0.00	30.159 
10:20	-10.7	-10.7	-10.7	67	-18.6	2	5	248	0.00	30.159 
10:25	-11.0	-11.0	-11.0	66	-19.2	3	6	270	0.00	30.159 
10:30	-11.0	-11.0	-11.0	66	-19.2	2	6	270	0.00	30.162 
10:35	-11.0	-11.0	-11.0	66	-19.2	3	8	270	0.00	30.162 
10:40	-11.0	-11.0	-11.0	66	-19.2	3	11	270	0.00	30.162 
10:45	-11.0	-11.0	-11.0	66	-19.2	2	6	248	0.00	30.170 
10:50	-11.0	-11.0	-11.0	66	-19.2	2	4	270	0.00	30.170 
10:55	-11.0	-11.0	-11.0	66	-19.2	3	9	270	0.00	30.170 
11:00	-11.0	-11.0	-11.0	66	-19.2	3	7	248	0.00	30.171 
11:05	-11.0	-11.0	-11.0	66	-19.2	2	5	248	0.00	30.171 
11:10	-11.0	-11.0	-11.0	66	-19.2	3	9	248	0.00	30.171 
11:15	-11.0	-11.0	-11.0	66	-19.2	2	5	248	0.00	30.174 
11:20	-11.0	-11.0	-11.0	66	-19.2	2	7	248	0.00	30.174 
11:25	-11.0	-11.0	-11.0	65	-19.4	3	9	270	0.00	30.174 
11:30	-11.2	-21.8	-11.2	65	-19.6	4	9	270	0.00	30.173 
11:35	-11.2	-11.2	-11.2	65	-19.6	3	7	248	0.00	30.173 
11:40	-11.2	-11.2	-11.2	65	-19.6	3	6	270	0.00	30.173 
11:45	-11.5	-22.2	-11.5	65	-19.9	4	7	270	0.00	30.171 
11:50	-11.5	-11.5	-11.5	65	-19.9	3	6	270	0.00	30.171 
11:55	-11.2	-11.2	-11.2	65	-19.6	3	5	270	0.00	30.171 
12:00	-11.2	-21.8	-11.2	65	-19.6	4	7	270	0.00	30.165 
12:05	-11.2	-11.2	-11.2	65	-19.6	3	7	248	0.00	30.165 
12:10	-11.0	-11.0	-11.0	65	-19.4	3	10	270	0.00	30.165 
12:15	-11.2	-21.8	-11.2	65	-19.6	4	11	270	0.00	30.170 
12:20	-11.2	-11.2	-11.2	65	-19.6	2	4	270	0.00	30.170 
12:25	-11.0	-21.6	-11.0	64	-19.7	4	10	270	0.00	30.170 
12:30	-11.2	-21.8	-11.2	64	-19.9	4	10	270	0.00	30.168 
12:35	-11.2	-11.2	-11.2	64	-19.9	3	8	248	0.00	30.168 
12:40	-11.2	-11.2	-11.2	64	-19.9	3	7	270	0.00	30.168 
12:45	-11.5	-11.5	-11.5	64	-20.2	3	7	270	0.00	30.168 
12:50	-11.2	-11.2	-11.2	64	-19.9	3	5	270	0.00	30.168 
12:55	-11.2	-11.2	-11.2	64	-19.9	3	6	270	0.00	30.168 
13:00	-11.5	-22.2	-11.5	64	-20.2	4	7	270	0.00	30.165 
13:05	-11.2	-11.2	-11.2	64	-19.9	3	9	270	0.00	30.165 
13:10	-11.2	-11.2	-11.2	64	-19.9	3	7	270	0.00	30.165 
13:15	-11.2	-11.2	-11.2	65	-19.6	3	5	270	0.00	30.164 
13:20	-11.0	-11.0	-11.0	65	-19.4	3	9	248	0.00	30.164 
13:25	-11.0	-11.0	-11.0	65	-19.4	3	12	248	0.00	30.164 
13:30	-11.2	-21.8	-11.2	64	-19.9	4	11	270	0.00	30.162 
13:35	-11.2	-21.8	-11.2	64	-19.9	4	10	248	0.00	30.162 
13:40	-11.2	-11.2	-11.2	65	-19.6	3	10	248	0.00	30.162 
13:45	-11.2	-21.8	-11.2	64	-19.9	4	8	270	0.00	30.167 
13:50	-11.2	-11.2	-11.2	64	-19.9	3	7	248	0.00	30.167 
13:55	-11.0	-11.0	-11.0	64	-19.7	3	6	248	0.00	30.167 
14:00	-11.0	-11.0	-11.0	63	-20.0	3	9	270	0.00	30.174 
14:05	-11.2	-11.2	-11.2	63	-20.2	3	9	270	0.00	30.174 
14:10	-11.0	-11.0	-11.0	64	-19.7	3	9	292	0.00	30.174 
14:15	-11.0	-11.0	-11.0	64	-19.7	3	10	248	0.00	30.184 
14:20	-10.7	-10.7	-10.7	64	-19.5	2	7	248	0.00	30.184 
14:25	-10.7	-10.7	-10.7	63	-19.8	3	7	270	0.00	30.184 
14:30	-11.0	-21.6	-11.0	62	-20.3	4	10	270	0.00	30.193 
14:35	-11.2	-11.2	-11.2	63	-20.2	3	6	248	0.00	30.193 
14:40	-11.2	-21.8	-11.2	63	-20.2	4	13	270	0.00	30.193 
14:45	-11.2	-11.2	-11.2	63	-20.2	3	6	270	0.00	30.198 
14:50	-11.2	-11.2	-11.2	63	-20.2	3	7	270	0.00	30.198 
14:55	-11.2	-11.2	-11.2	64	-19.9	3	6	270	0.00	30.198 
15:00	-11.2	-11.2	-11.2	64	-19.9	3	6	270	0.00	30.203 
15:05	-11.2	-11.2	-11.2	63	-20.2	3	7	270	0.00	30.203 
15:10	-11.5	-11.5	-11.5	63	-20.5	3	7	270	0.00	30.203 
15:15	-11.2	-11.2	-11.2	65	-19.6	2	4	248	0.00	30.216 
15:20	-11.2	-21.8	-11.2	64	-19.9	4	11	248	0.00	30.216 
15:25	-11.5	-11.5	-11.5	63	-20.5	3	7	270	0.00	30.216 
15:30	-11.5	-11.5	-11.5	64	-20.2	2	6	248	0.00	30.220 
15:35	-11.2	-11.2	-11.2	64	-19.9	3	6	248	0.00	30.220 
15:40	-11.5	-11.5	-11.5	64	-20.2	3	7	248	0.00	30.220 
15:45	-11.5	-11.5	-11.5	64	-20.2	3	14	248	0.00	30.230 
15:50	-11.5	-11.5	-11.5	64	-20.2	3	8	248	0.00	30.230 
15:55	-11.5	-11.5	-11.5	64	-20.2	2	7	248	0.00	30.230 
16:00	-11.7	-11.7	-11.7	64	-20.4	3	6	248	0.00	30.235 
16:05	-11.7	-11.7	-11.7	64	-20.4	2	6	248	0.00	30.235 
16:10	-12.0	-12.0	-12.0	64	-20.7	2	5	248	0.00	30.235 
16:15	-12.0	-12.0	-12.0	64	-20.7	2	5	248	0.00	30.246 
16:20	-12.0	-12.0	-12.0	64	-20.7	3	7	270	0.00	30.246 
16:25	-12.2	-12.2	-12.2	64	-20.9	2	4	270	0.00	30.246 
16:30	-12.2	-12.2	-12.2	64	-20.9	2	5	270	0.00	30.252 
16:35	-12.5	-12.5	-12.5	64	-21.2	3	9	248	0.00	30.252 
16:40	-12.5	-12.5	-12.5	64	-21.2	2	7	248	0.00	30.252 
16:45	-12.8	-12.8	-12.8	64	-21.5	2	5	248	0.00	30.256 
16:50	-12.8	-12.8	-12.8	64	-21.5	1	5	270	0.00	30.256 
16:55	-12.8	-12.8	-12.8	64	-21.5	2	5	270	0.00	30.256 
17:00	-12.8	-12.8	-12.8	64	-21.5	2	7	248	0.00	30.264 
17:05	-12.8	-12.8	-12.8	64	-21.5	1	5	248	0.00	30.264 
17:10	-13.0	-13.0	-13.0	65	-21.4	2	10	270	0.00	30.264 
17:15	-13.0	-13.0	-13.0	65	-21.4	2	4	248	0.00	30.270 
17:20	-13.0	-13.0	-13.0	65	-21.4	1	4	270	0.00	30.270 
17:25	-13.0	-13.0	-13.0	65	-21.4	2	5	248	0.00	30.270 
17:30	-13.3	-13.3	-13.3	65	-21.6	1	5	248	0.00	30.273 
17:35	-13.3	-13.3	-13.3	65	-21.6	1	4	248	0.00	30.273 
17:40	-13.3	-13.3	-13.3	65	-21.6	2	5	270	0.00	30.273 
17:45	-13.3	-13.3	-13.3	65	-21.6	2	5	270	0.00	30.279 
17:50	-13.3	-13.3	-13.3	65	-21.6	2	6	248	0.00	30.279 
17:55	-13.3	-13.3	-13.3	64	-21.9	1	4	248	0.00	30.279 
18:00	-13.3	-13.3	-13.3	65	-21.6	1	5	270	0.00	30.290 
18:05	-13.5	-13.5	-13.5	65	-21.8	2	10	270	0.00	30.290 
18:10	-13.5	-13.5	-13.5	65	-21.8	2	5	270	0.00	30.290 
18:15	-13.5	-13.5	-13.5	65	-21.8	2	6	248	0.00	30.296 
18:20	-13.5	-13.5	-13.5	65	-21.8	1	3	270	0.00	30.296 
18:25	-13.5	-13.5	-13.5	65	-21.8	2	6	248	0.00	30.296 
18:30	-13.5	-13.5	-13.5	65	-21.8	2	7	248	0.00	30.299 
18:35	-13.5	-13.5	-13.5	65	-21.8	2	4	248	0.00	30.299 
18:40	-13.5	-13.5	-13.5	65	-21.8	2	7	248	0.00	30.299 
18:45	-13.5	-13.5	-13.5	64	-22.1	2	6	248	0.00	30.308 
18:50	-13.5	-13.5	-13.5	64	-22.1	3	9	248	0.00	30.308 
18:55	-13.5	-13.5	-13.5	64	-22.1	2	5	248	0.00	30.308 
19:00	-13.5	-13.5	-13.5	64	-22.1	3	7	248	0.00	30.310 
19:05	-13.5	-13.5	-13.5	64	-22.1	2	6	270	0.00	30.310 
19:10	-13.5	-13.5	-13.5	64	-22.1	2	6	270	0.00	30.310 
19:15	-13.3	-13.3	-13.3	64	-21.9	2	7	248	0.00	30.315 
19:20	-13.5	-13.5	-13.5	64	-22.1	2	6	248	0.00	30.315 
19:25	-13.5	-13.5	-13.5	65	-21.8	2	4	270	0.00	30.315 
19:30	-13.5	-13.5	-13.5	65	-21.8	2	4	270	0.00	30.316 
19:35	-13.3	-13.3	-13.3	65	-21.6	2	7	248	0.00	30.316 
19:40	-13.3	-13.3	-13.3	65	-21.6	2	6	248	0.00	30.316 
19:45	-13.3	-13.3	-13.3	65	-21.6	1	4	248	0.00	30.318 
19:50	-13.3	-13.3	-13.3	65	-21.6	2	4	270	0.00	30.318 
19:55	-13.3	-13.3	-13.3	65	-21.6	2	4	270	0.00	30.318 
20:00	-13.3	-13.3	-13.3	65	-21.6	1	4	270	0.00	30.323 
20:05	-13.3	-13.3	-13.3	65	-21.6	2	6	248	0.00	30.323 
20:10	-13.3	-13.3	-13.3	65	-21.6	2	5	248	0.00	30.323 
20:15	-13.3	-13.3	-13.3	65	-21.6	1	4	248	0.00	30.325 
20:20	-13.3	-13.3	-13.3	65	-21.6	2	4	248	0.00	30.325 
20:25	-13.3	-13.3	-13.3	65	-21.6	1	3	248	0.00	30.325 
20:30	-13.3	-13.3	-13.3	65	-21.6	1	5	248	0.00	30.327 
20:35	-13.3	-13.3	-13.3	65	-21.6	1	3	270	0.00	30.327 
20:40	-13.3	-13.3	-13.3	65	-21.6	2	4	270	0.00	30.327 
20:45	-13.3	-13.3	-13.3	65	-21.6	2	6	248	0.00	30.326 
20:50	-13.0	-13.0	-13.0	65	-21.4	2	5	270	0.00	30.326 
20:55	-13.0	-13.0	-13.0	65	-21.4	2	5	248	0.00	30.326 
21:00	-13.0	-13.0	-13.0	65	-21.4	2	5	270	0.00	30.324 
21:05	-13.0	-13.0	-13.0	65	-21.4	2	4	270	0.00	30.324 
21:10	-13.0	-13.0	-13.0	65	-21.4	2	3	248	0.00	30.324 
21:15	-13.0	-13.0	-13.0	66	-21.1	2	5	248	0.00	30.334 
21:20	-13.0	-13.0	-13.0	66	-21.1	2	6	248	0.00	30.334 
21:25	-12.8	-12.8	-12.8	66	-20.9	2	5	270	0.00	30.334 
21:30	-12.8	-12.8	-12.8	66	-20.9	2	8	248	0.00	30.335 
21:35	-12.8	-12.8	-12.8	66	-20.9	2	4	248	0.00	30.335 
21:40	-12.8	-12.8	-12.8	66	-20.9	1	2	270	0.00	30.335 
21:45	-12.8	-12.8	-12.8	66	-20.9	1	3	248	0.00	30.334 
21:50	-12.8	-12.8	-12.8	66	-20.9	1	3	248	0.00	30.334 
21:55	-12.8	-12.8	-12.8	67	-20.6	1	4	248	0.00	30.334 
22:00	-12.5	-12.5	-12.5	67	-20.3	1	4	248	0.00	30.335 
22:05	-12.5	-12.5	-12.5	67	-20.3	2	4	248	0.00	30.335 
22:10	-12.5	-12.5	-12.5	67	-20.3	2	7	270	0.00	30.335 
22:15	-12.5	-12.5	-12.5	66	-20.6	1	5	248	0.00	30.334 
22:20	-12.5	-12.5	-12.5	66	-20.6	2	4	248	0.00	30.334 
22:25	-12.5	-12.5	-12.5	66	-20.6	2	5	248	0.00	30.334 
22:30	-12.5	-12.5	-12.5	66	-20.6	1	4	248	0.00	30.334 
22:35	-12.5	-12.5	-12.5	66	-20.6	1	4	270	0.00	30.334 
22:40	-12.5	-12.5	-12.5	66	-20.6	2	5	270	0.00	30.334 
22:45	-12.5	-12.5	-12.5	66	-20.6	1	4	248	0.00	30.332 
22:50	-12.5	-12.5	-12.5	66	-20.6	2	3	270	0.00	30.332 
22:55	-12.5	-12.5	-12.5	66	-20.6	1	4	270	0.00	30.332 
23:00	-12.5	-12.5	-12.5	66	-20.6	1	3	248	0.00	30.328 
23:05	-12.2	-12.2	-12.2	66	-20.3	1	4	248	0.00	30.328 
23:10	-12.2	-12.2	-12.2	66	-20.3	1	4	270	0.00	30.328 
23:15	-12.2	-12.2	-12.2	67	-20.0	2	6	248	0.00	30.324 
23:20	-12.2	-12.2	-12.2	67	-20.0	1	5	248	0.00	30.324 
23:25	-12.2	-12.2	-12.2	67	-20.0	1	3	248	0.00	30.324 
23:30	-12.2	-12.2	-12.2	67	-20.0	1	4	248	0.00	30.324 
23:35	-12.2	-12.2	-12.2	67	-20.0	1	5	248	0.00	30.324 
23:40	-12.2	-12.2	-12.2	67	-20.0	1	6	225	0.00	30.324 
23:45	-12.2	-12.2	-12.2	67	-20.0	1	4	248	0.00	30.317 
23:50	-12.2	-12.2	-12.2	67	-20.0	2	6	248	0.00	30.317 
23:55	-12.2	-12.2	-12.2	67	-20.0	1	5	248	0.00	30.317 

CoCoRaHS
IN-AL-39
A2 Web Hosting
Creative Commons License
GoDaddy
search engine by freefind advanced

loaded 2018-11-16 11:28:00 • last modified 2010-11-18 10:43:29
Privacy PolicyDisclaimer
• wx.awcolley.com is powered by PmWiki v.2002016 •
• all content (unless otherwise noted) © 2018 A W Colley